Time;durP1;ratioP1;P1;durP2;ratioP2;P2;SDS_P1;SDS_P2;PMS_P1;PMS_P2;Temp;Humidity;BMP_temperature;BMP_pressure;BME280_temperature;BME280_humidity;BME280_pressure;Samples;Min_cycle;Max_cycle;Signal;HPM_P1;HPM_P2
2022/08/08 00:00:53;;;;;;;2.83;2.50;;;26.10;42.70;;;;;;5058459;28;20435;-80
2022/08/08 00:03:45;;;;;;;2.87;2.77;;;26.00;42.70;;;;;;5057868;28;20491;-80
2022/08/08 00:06:19;;;;;;;2.27;2.13;;;26.00;42.80;;;;;;5057718;28;20512;-79
2022/08/08 00:09:03;;;;;;;2.20;2.10;;;26.00;42.70;;;;;;5059191;28;20525;-79
2022/08/08 00:11:37;;;;;;;2.30;2.20;;;25.90;42.60;;;;;;5057619;28;20421;-79
2022/08/08 00:14:36;;;;;;;2.27;2.10;;;25.90;42.50;;;;;;5058291;28;20450;-80
2022/08/08 00:17:27;;;;;;;2.60;2.50;;;25.90;42.60;;;;;;5057885;28;20418;-80
2022/08/08 00:20:17;;;;;;;2.13;2.03;;;25.90;42.60;;;;;;5057421;28;20405;-79
2022/08/08 00:22:46;;;;;;;2.60;2.50;;;25.90;42.60;;;;;;5050277;28;20430;-79
2022/08/08 00:25:16;;;;;;;2.30;2.20;;;25.90;42.60;;;;;;5058715;28;20522;-79
2022/08/08 00:27:44;;;;;;;2.10;2.00;;;25.80;42.50;;;;;;5057726;28;20480;-79
2022/08/08 00:30:12;;;;;;;2.27;2.10;;;25.80;42.50;;;;;;5058328;28;20446;-80
2022/08/08 00:32:46;;;;;;;2.30;2.20;;;25.80;42.40;;;;;;5058794;28;20498;-79
2022/08/08 00:35:44;;;;;;;2.37;2.27;;;25.80;42.50;;;;;;5057981;28;20441;-79
2022/08/08 00:38:32;;;;;;;2.60;2.40;;;25.70;42.30;;;;;;5058233;28;20432;-79
2022/08/08 00:41:55;;;;;;;2.47;2.33;;;25.70;42.40;;;;;;5057848;28;20446;-79
2022/08/08 00:45:16;;;;;;;1.93;1.83;;;25.60;42.40;;;;;;5057300;28;20460;-80
2022/08/08 00:48:26;;;;;;;2.50;2.30;;;25.60;42.40;;;;;;5049596;28;20445;-79
2022/08/08 00:51:24;;;;;;;2.20;2.10;;;25.60;42.40;;;;;;5046423;28;20513;-80
2022/08/08 00:54:35;;;;;;;2.50;2.40;;;25.50;42.40;;;;;;5053177;28;20504;-79
2022/08/08 00:57:32;;;;;;;2.77;2.63;;;25.50;42.40;;;;;;5026097;28;20421;-79
2022/08/08 01:00:08;;;;;;;2.60;2.50;;;25.40;42.40;;;;;;5034370;28;20443;-79
2022/08/08 01:02:59;;;;;;;2.60;2.40;;;25.40;42.40;;;;;;5038590;28;20400;-79
2022/08/08 01:06:20;;;;;;;2.20;2.10;;;25.40;42.30;;;;;;5037433;28;20435;-79
2022/08/08 01:09:43;;;;;;;2.33;2.23;;;25.40;42.20;;;;;;5037491;28;20479;-79
2022/08/08 01:12:44;;;;;;;2.10;2.00;;;25.30;42.30;;;;;;5049570;28;20425;-79
2022/08/08 01:15:38;;;;;;;3.03;2.30;;;25.30;42.40;;;;;;5056477;28;20462;-80
2022/08/08 01:18:31;;;;;;;2.30;2.10;;;25.30;42.40;;;;;;5055892;28;20386;-79
2022/08/08 01:21:33;;;;;;;2.33;2.23;;;25.20;42.40;;;;;;5055555;28;20401;-80
2022/08/08 01:24:44;;;;;;;1.97;1.87;;;25.20;42.30;;;;;;5058590;28;20436;-79
2022/08/08 01:27:51;;;;;;;2.33;2.20;;;25.20;42.30;;;;;;5058975;28;20413;-80
2022/08/08 01:30:53;;;;;;;2.30;2.20;;;25.20;42.30;;;;;;5059332;28;20833;-80
2022/08/08 01:33:57;;;;;;;2.43;2.23;;;25.20;42.20;;;;;;5058831;28;20462;-80
2022/08/08 01:36:51;;;;;;;2.10;2.00;;;25.10;42.20;;;;;;5059938;28;20417;-80
2022/08/08 01:39:32;;;;;;;2.13;2.03;;;25.10;42.30;;;;;;5058509;28;20419;-80
2022/08/08 01:42:05;;;;;;;1.93;1.83;;;25.00;42.20;;;;;;5058414;28;20405;-80
2022/08/08 01:44:42;;;;;;;2.20;2.10;;;25.00;42.90;;;;;;5058343;28;20448;-79
2022/08/08 01:47:19;;;;;;;2.27;2.17;;;25.00;42.30;;;;;;5059078;28;20427;-80
2022/08/08 01:50:17;;;;;;;2.17;2.07;;;25.00;42.20;;;;;;5058577;28;20441;-79
2022/08/08 01:52:54;;;;;;;2.20;2.10;;;25.00;42.30;;;;;;5058921;28;20530;-80
2022/08/08 01:55:46;;;;;;;2.40;2.30;;;25.00;42.40;;;;;;5059551;28;20427;-80
2022/08/08 01:58:39;;;;;;;2.50;2.40;;;24.90;42.30;;;;;;5058049;28;20427;-80
2022/08/08 02:01:24;;;;;;;2.20;2.10;;;24.90;42.10;;;;;;5059466;28;20439;-80
2022/08/08 02:04:14;;;;;;;2.10;2.00;;;24.90;42.10;;;;;;5038689;28;20505;-80
2022/08/08 02:06:59;;;;;;;2.43;2.33;;;24.90;42.20;;;;;;5037948;28;20493;-80
2022/08/08 02:09:38;;;;;;;2.20;2.10;;;24.90;42.10;;;;;;5038485;28;20469;-80
2022/08/08 02:12:28;;;;;;;2.13;2.03;;;24.90;42.10;;;;;;5038545;28;20437;-80
2022/08/08 02:15:00;;;;;;;2.60;2.50;;;24.80;42.00;;;;;;5038258;28;20496;-80
2022/08/08 02:17:40;;;;;;;2.30;2.20;;;24.80;42.00;;;;;;5057475;28;20503;-80
2022/08/08 02:20:13;;;;;;;2.63;2.50;;;24.80;42.20;;;;;;5059073;28;20472;-80
2022/08/08 02:23:09;;;;;;;2.17;2.07;;;24.70;42.00;;;;;;5057206;28;20409;-79
2022/08/08 02:25:47;;;;;;;2.27;2.17;;;24.70;42.00;;;;;;5057542;28;20465;-80
2022/08/08 02:28:19;;;;;;;2.57;2.47;;;24.70;42.00;;;;;;5057423;28;20414;-79
2022/08/08 02:31:03;;;;;;;2.17;2.07;;;24.70;41.90;;;;;;5057266;28;20488;-80
2022/08/08 02:33:59;;;;;;;1.77;1.67;;;24.70;42.00;;;;;;5056501;28;20448;-80
2022/08/08 02:36:39;;;;;;;2.30;2.20;;;24.60;41.80;;;;;;5056733;28;20443;-80
2022/08/08 02:39:24;;;;;;;1.83;1.80;;;24.60;41.80;;;;;;5057655;28;20975;-80
2022/08/08 02:42:47;;;;;;;2.23;2.00;;;24.60;41.80;;;;;;5060010;28;20413;-83
2022/08/08 02:46:18;;;;;;;2.33;2.10;;;24.60;41.80;;;;;;5060527;28;20406;-81
2022/08/08 02:49:09;;;;;;;2.20;2.07;;;24.60;41.80;;;;;;5053286;28;20446;-83
2022/08/08 02:52:06;;;;;;;2.07;1.97;;;24.50;41.80;;;;;;5043166;28;20418;-84
2022/08/08 02:55:04;;;;;;;2.03;1.93;;;24.50;41.60;;;;;;5045191;28;20442;-84
2022/08/08 02:58:24;;;;;;;1.97;1.87;;;24.50;41.80;;;;;;5042578;28;20565;-85
2022/08/08 03:01:08;;;;;;;2.60;2.33;;;24.50;41.90;;;;;;5042000;28;20407;-82
2022/08/08 03:04:24;;;;;;;2.23;1.90;;;24.40;41.80;;;;;;5040809;28;20490;-84
2022/08/08 03:07:53;;;;;;;2.00;1.90;;;24.40;41.70;;;;;;5060486;28;20417;-82
2022/08/08 03:11:00;;;;;;;2.50;2.40;;;24.40;41.80;;;;;;5040514;28;20494;-83
2022/08/08 03:13:41;;;;;;;2.27;2.17;;;24.40;41.70;;;;;;5041929;28;20433;-83
2022/08/08 03:16:36;;;;;;;3.57;2.30;;;24.40;42.50;;;;;;5055691;28;20405;-83
2022/08/08 03:19:38;;;;;;;5.80;2.00;;;24.40;42.80;;;;;;5062270;28;20434;-84
2022/08/08 03:22:17;;;;;;;2.50;2.40;;;24.30;42.50;;;;;;5063174;28;20442;-84
2022/08/08 03:25:07;;;;;;;1.83;1.70;;;24.30;42.60;;;;;;5061664;28;20457;-83
2022/08/08 03:27:49;;;;;;;2.57;2.30;;;24.30;42.60;;;;;;5062694;28;20413;-83
2022/08/08 03:30:23;;;;;;;2.40;2.30;;;24.30;42.40;;;;;;5063599;28;20473;-83
2022/08/08 03:35:57;;;;;;;3.37;2.30;;;24.20;42.30;;;;;;5062354;28;20488;-84
2022/08/08 03:38:25;;;;;;;1.90;1.80;;;24.20;42.30;;;;;;5063163;28;20454;-84
2022/08/08 03:41:14;;;;;;;1.97;1.87;;;24.20;42.30;;;;;;5062589;28;20406;-83
2022/08/08 03:44:02;;;;;;;1.90;1.80;;;24.20;42.30;;;;;;5062560;28;20458;-84
2022/08/08 03:46:30;;;;;;;2.10;1.90;;;24.10;42.20;;;;;;5062592;28;20466;-83
2022/08/08 03:49:01;;;;;;;2.20;2.10;;;24.10;42.10;;;;;;5062343;28;20421;-83
2022/08/08 03:51:51;;;;;;;2.70;2.50;;;24.10;42.10;;;;;;5062119;28;20415;-83
2022/08/08 03:54:19;;;;;;;2.20;2.10;;;24.10;42.20;;;;;;5062243;28;20468;-83
2022/08/08 03:57:11;;;;;;;2.33;2.13;;;24.10;42.20;;;;;;5062150;28;20409;-83
2022/08/08 03:59:59;;;;;;;2.20;2.10;;;24.00;42.20;;;;;;5061790;28;20405;-83
2022/08/08 04:02:38;;;;;;;2.30;2.10;;;24.00;42.10;;;;;;5062100;28;20446;-83
2022/08/08 04:05:18;;;;;;;2.10;1.90;;;24.00;42.20;;;;;;5062494;28;20448;-82
2022/08/08 04:07:55;;;;;;;2.43;2.00;;;24.00;42.70;;;;;;5065201;28;20405;-83
2022/08/08 04:10:24;;;;;;;1.83;1.73;;;24.00;42.20;;;;;;5061994;28;20525;-82
2022/08/08 04:13:00;;;;;;;2.37;2.27;;;24.00;42.00;;;;;;5062023;28;20496;-83
2022/08/08 04:15:44;;;;;;;3.67;2.07;;;24.00;42.10;;;;;;5061902;28;20436;-83
2022/08/08 04:18:30;;;;;;;2.43;2.23;;;24.00;42.00;;;;;;5062261;28;20470;-83
2022/08/08 04:20:59;;;;;;;2.37;2.27;;;23.90;42.00;;;;;;5062338;28;20446;-83
2022/08/08 04:23:27;;;;;;;2.77;2.57;;;23.90;42.00;;;;;;5061649;28;20445;-84
2022/08/08 04:26:15;;;;;;;2.67;2.57;;;23.90;42.00;;;;;;5062271;28;20410;-84
2022/08/08 04:28:47;;;;;;;2.70;2.50;;;23.90;42.00;;;;;;5062016;28;20478;-83
2022/08/08 04:31:21;;;;;;;2.17;2.10;;;23.80;41.90;;;;;;5061499;28;20590;-84
2022/08/08 04:34:09;;;;;;;2.43;2.30;;;23.80;42.00;;;;;;5061751;28;20493;-83
2022/08/08 04:36:37;;;;;;;2.23;2.13;;;23.80;41.90;;;;;;5060804;28;20449;-84
2022/08/08 04:39:06;;;;;;;3.10;2.80;;;23.80;41.90;;;;;;5061069;28;20457;-84
2022/08/08 04:41:54;;;;;;;2.87;2.67;;;23.80;41.90;;;;;;5061058;28;20409;-83
2022/08/08 04:44:24;;;;;;;3.10;2.80;;;23.80;41.90;;;;;;5061101;28;20992;-82
2022/08/08 04:46:53;;;;;;;4.13;2.80;;;23.80;41.90;;;;;;5062262;28;20512;-83
2022/08/08 04:49:24;;;;;;;3.00;2.80;;;23.80;41.80;;;;;;5062657;28;20479;-84
2022/08/08 04:52:12;;;;;;;2.60;2.10;;;23.80;41.90;;;;;;5061581;28;20412;-83
2022/08/08 04:54:41;;;;;;;3.30;2.43;;;23.80;41.80;;;;;;5061410;28;20466;-84
2022/08/08 04:57:09;;;;;;;2.43;2.33;;;23.80;41.90;;;;;;5061501;28;20469;-84
2022/08/08 04:59:38;;;;;;;2.80;2.63;;;23.80;41.90;;;;;;5065158;28;20434;-83
2022/08/08 05:02:09;;;;;;;2.57;2.37;;;23.80;41.80;;;;;;5065992;28;20417;-84
2022/08/08 05:04:40;;;;;;;2.50;2.40;;;23.70;41.80;;;;;;5065304;28;20974;-83
2022/08/08 05:07:11;;;;;;;2.67;2.50;;;23.70;41.80;;;;;;5066169;28;20413;-84
2022/08/08 05:09:42;;;;;;;2.87;2.67;;;23.70;41.90;;;;;;5066857;28;20421;-84
2022/08/08 05:12:10;;;;;;;2.33;2.23;;;23.70;41.80;;;;;;5065143;28;20465;-84
2022/08/08 05:14:59;;;;;;;2.80;2.63;;;23.70;41.90;;;;;;5065465;28;20450;-84
2022/08/08 05:17:31;;;;;;;2.80;2.60;;;23.60;42.00;;;;;;5065645;28;20421;-81
2022/08/08 05:20:19;;;;;;;3.47;3.20;;;23.60;41.80;;;;;;5065469;28;20427;-84
2022/08/08 05:22:49;;;;;;;2.53;2.43;;;23.60;42.00;;;;;;5066475;28;20450;-84
2022/08/08 05:25:18;;;;;;;2.40;2.30;;;23.60;42.00;;;;;;5066294;28;20440;-84
2022/08/08 05:27:48;;;;;;;2.77;2.67;;;23.60;41.90;;;;;;5066628;28;20473;-83
2022/08/08 05:30:17;;;;;;;2.63;2.40;;;23.60;42.10;;;;;;5066037;28;20501;-84
2022/08/08 05:32:55;;;;;;;3.43;3.20;;;23.50;42.00;;;;;;5066278;28;20521;-84
2022/08/08 05:35:24;;;;;;;3.07;2.87;;;23.50;42.00;;;;;;5065895;28;20453;-84
2022/08/08 05:37:54;;;;;;;2.70;2.60;;;23.50;42.00;;;;;;5065775;28;20425;-83
2022/08/08 05:40:25;;;;;;;2.70;2.50;;;23.50;42.10;;;;;;5065898;28;20513;-84
2022/08/08 05:42:58;;;;;;;3.67;2.37;;;23.50;42.00;;;;;;5064512;28;20483;-83
2022/08/08 05:45:31;;;;;;;2.90;2.63;;;23.50;42.00;;;;;;5065471;28;20498;-84
2022/08/08 05:48:19;;;;;;;2.93;2.73;;;23.50;42.10;;;;;;5065205;28;20410;-84
2022/08/08 05:50:58;;;;;;;2.80;2.50;;;23.40;42.10;;;;;;5065086;28;20516;-83
2022/08/08 05:53:42;;;;;;;2.23;1.97;;;23.40;42.00;;;;;;5064168;28;20441;-83
2022/08/08 05:56:30;;;;;;;2.73;2.63;;;23.40;42.00;;;;;;5065990;28;20435;-83
2022/08/08 05:59:01;;;;;;;2.47;2.27;;;23.40;42.10;;;;;;5065149;28;20473;-84
2022/08/08 06:01:32;;;;;;;2.80;2.60;;;23.50;42.00;;;;;;5064581;28;20423;-83
2022/08/08 06:04:23;;;;;;;3.27;2.97;;;23.50;42.00;;;;;;5064862;28;20496;-83
2022/08/08 06:06:52;;;;;;;2.57;2.47;;;23.60;42.00;;;;;;5065486;28;20452;-85
2022/08/08 06:09:27;;;;;;;2.20;2.10;;;23.60;42.00;;;;;;5063505;28;20438;-84
2022/08/08 06:12:15;;;;;;;2.83;2.40;;;23.70;41.90;;;;;;5064539;28;20470;-85
2022/08/08 06:14:45;;;;;;;2.93;2.67;;;23.70;41.80;;;;;;5064919;28;20473;-83
2022/08/08 06:17:17;;;;;;;2.30;2.10;;;23.90;41.70;;;;;;5065122;28;20474;-83
2022/08/08 06:19:46;;;;;;;2.20;2.10;;;23.90;41.50;;;;;;5065067;28;20449;-85
2022/08/08 06:22:14;;;;;;;2.13;2.03;;;24.00;41.50;;;;;;5065180;28;20426;-83
2022/08/08 06:25:02;;;;;;;2.40;2.30;;;24.10;41.30;;;;;;5064440;28;20457;-84
2022/08/08 06:27:35;;;;;;;2.30;2.20;;;24.10;41.40;;;;;;5065045;28;20446;-84
2022/08/08 06:30:09;;;;;;;2.80;2.20;;;24.20;41.40;;;;;;5065097;28;20931;-84
2022/08/08 06:32:50;;;;;;;2.40;2.20;;;24.30;41.20;;;;;;5064985;28;20390;-84
2022/08/08 06:35:19;;;;;;;2.53;2.33;;;24.40;41.20;;;;;;5064561;28;20437;-85
2022/08/08 06:38:07;;;;;;;1.90;1.90;;;24.50;40.90;;;;;;5064979;28;21004;-85
2022/08/08 06:40:41;;;;;;;2.47;1.70;;;24.50;40.90;;;;;;5065122;28;20438;-84
2022/08/08 06:43:21;;;;;;;2.20;2.00;;;24.60;40.80;;;;;;5064919;28;20473;-83
2022/08/08 06:46:01;;;;;;;2.07;1.97;;;24.70;41.00;;;;;;5064506;28;20474;-83
2022/08/08 06:48:31;;;;;;;2.00;1.90;;;24.80;40.70;;;;;;5064515;28;20443;-82
2022/08/08 06:50:59;;;;;;;2.03;1.93;;;24.90;40.80;;;;;;5063693;28;20477;-84
2022/08/08 06:53:34;;;;;;;2.20;2.10;;;24.90;40.60;;;;;;5063773;28;20541;-83
2022/08/08 06:56:17;;;;;;;1.80;1.53;;;25.00;40.40;;;;;;5063759;28;20406;-84
2022/08/08 06:58:49;;;;;;;1.90;1.80;;;25.10;40.40;;;;;;5063717;28;20405;-83
2022/08/08 07:01:18;;;;;;;2.33;2.23;;;25.20;40.00;;;;;;5063110;28;20480;-83
2022/08/08 07:04:09;;;;;;;1.80;1.80;;;25.40;40.00;;;;;;5063511;28;20459;-84
2022/08/08 07:06:59;;;;;;;1.73;1.63;;;25.40;39.60;;;;;;5064200;28;20872;-84
2022/08/08 07:09:38;;;;;;;2.03;1.93;;;25.50;39.60;;;;;;5063736;28;20450;-83
2022/08/08 07:12:38;;;;;;;2.10;2.00;;;25.70;39.70;;;;;;5058793;28;20447;-81
2022/08/08 07:15:07;;;;;;;1.93;1.83;;;25.80;40.00;;;;;;5056936;28;20462;-81
2022/08/08 07:17:55;;;;;;;1.77;1.77;;;25.90;39.70;;;;;;5057177;28;20496;-81
2022/08/08 07:20:45;;;;;;;1.67;1.57;;;26.00;39.70;;;;;;5058736;28;20420;-79
2022/08/08 07:23:21;;;;;;;1.73;1.63;;;26.10;39.60;;;;;;5057986;28;20507;-83
2022/08/08 07:25:51;;;;;;;2.20;2.10;;;26.20;39.50;;;;;;5063121;28;20564;-81
2022/08/08 07:28:23;;;;;;;1.80;1.80;;;26.40;39.10;;;;;;5062957;28;20431;-83
2022/08/08 07:30:58;;;;;;;1.70;1.60;;;26.60;39.00;;;;;;5062270;28;20463;-83
2022/08/08 07:33:26;;;;;;;2.20;2.00;;;26.70;38.90;;;;;;5061904;28;20429;-83
2022/08/08 07:36:07;;;;;;;1.93;1.83;;;26.90;38.80;;;;;;5062553;28;20470;-84
2022/08/08 07:38:36;;;;;;;1.90;1.80;;;27.00;38.90;;;;;;5062478;28;20476;-84
2022/08/08 07:41:04;;;;;;;1.60;1.50;;;27.20;38.80;;;;;;5062690;28;20438;-83
2022/08/08 07:43:35;;;;;;;1.50;1.50;;;27.30;38.80;;;;;;5062769;28;20494;-83
2022/08/08 07:46:05;;;;;;;1.80;1.70;;;27.40;38.80;;;;;;5063695;28;20435;-83
2022/08/08 07:48:53;;;;;;;1.63;1.53;;;27.50;38.60;;;;;;5062940;28;20529;-82
2022/08/08 07:51:22;;;;;;;1.60;1.50;;;27.70;38.70;;;;;;5062416;28;20517;-84
2022/08/08 07:54:17;;;;;;;1.43;1.43;;;27.80;38.60;;;;;;5062252;28;20437;-84
2022/08/08 07:56:58;;;;;;;1.50;1.40;;;28.00;38.70;;;;;;5061919;28;20425;-83
2022/08/08 07:59:30;;;;;;;1.77;1.67;;;28.10;38.50;;;;;;5062694;28;20430;-83
2022/08/08 08:02:05;;;;;;;1.60;1.60;;;28.30;38.50;;;;;;5062990;28;20422;-83
2022/08/08 08:04:55;;;;;;;1.60;1.50;;;28.50;38.40;;;;;;5062722;28;20515;-83
2022/08/08 08:07:24;;;;;;;1.20;1.20;;;28.70;38.40;;;;;;5062569;28;20518;-83
2022/08/08 08:10:04;;;;;;;1.33;1.33;;;28.80;38.30;;;;;;5062247;28;20430;-83
2022/08/08 08:12:33;;;;;;;1.33;1.23;;;29.00;38.20;;;;;;5061580;28;20474;-82
2022/08/08 08:15:10;;;;;;;1.37;1.37;;;29.20;38.40;;;;;;5062494;28;20467;-84
2022/08/08 08:17:44;;;;;;;1.50;1.50;;;29.40;38.10;;;;;;5062976;28;20504;-83
2022/08/08 08:20:22;;;;;;;1.30;1.20;;;29.60;38.00;;;;;;5061483;28;20446;-83
2022/08/08 08:22:58;;;;;;;1.60;1.50;;;29.80;37.90;;;;;;5061693;28;20413;-80
2022/08/08 08:25:27;;;;;;;1.30;1.20;;;29.80;37.70;;;;;;5061446;28;20444;-84
2022/08/08 08:28:14;;;;;;;1.30;1.20;;;29.80;37.80;;;;;;5061646;28;20456;-83
2022/08/08 08:30:43;;;;;;;1.73;1.70;;;29.90;37.90;;;;;;5061255;28;20500;-84
2022/08/08 08:33:12;;;;;;;1.50;1.40;;;30.00;38.00;;;;;;5059677;28;20471;-84
2022/08/08 08:35:50;;;;;;;1.17;1.17;;;30.20;37.90;;;;;;5060909;28;20465;-84
2022/08/08 08:38:40;;;;;;;1.30;1.20;;;30.30;37.80;;;;;;5061132;28;20517;-84
2022/08/08 08:41:17;;;;;;;1.70;1.50;;;30.60;37.90;;;;;;5060959;28;20515;-83
2022/08/08 08:43:49;;;;;;;1.30;1.20;;;30.80;37.90;;;;;;5061364;28;20470;-84
2022/08/08 08:46:18;;;;;;;1.63;1.40;;;31.00;37.80;;;;;;5061111;28;20449;-84
2022/08/08 08:48:52;;;;;;;1.40;1.30;;;31.10;38.40;;;;;;5061664;28;20446;-84
2022/08/08 08:51:20;;;;;;;1.40;1.30;;;31.30;38.00;;;;;;5061183;28;20450;-83
2022/08/08 08:53:50;;;;;;;1.30;1.30;;;31.50;37.90;;;;;;5061683;28;20549;-83
2022/08/08 08:56:27;;;;;;;1.10;1.10;;;31.60;37.80;;;;;;5060817;28;20477;-84
2022/08/08 08:58:56;;;;;;;1.13;1.13;;;31.70;37.70;;;;;;5059695;28;20458;-83
2022/08/08 09:01:27;;;;;;;1.37;1.27;;;31.90;37.70;;;;;;5059952;28;20417;-84
2022/08/08 09:04:00;;;;;;;1.23;1.23;;;32.00;37.70;;;;;;5059812;28;20473;-82
2022/08/08 09:06:31;;;;;;;1.50;1.40;;;32.20;37.70;;;;;;5060734;28;20506;-84
2022/08/08 09:09:05;;;;;;;1.30;1.20;;;32.30;37.70;;;;;;5060087;28;20442;-84
2022/08/08 09:11:34;;;;;;;1.23;1.20;;;32.40;37.80;;;;;;5061356;28;20461;-84
2022/08/08 09:14:19;;;;;;;1.30;1.30;;;32.70;37.60;;;;;;5060683;28;20468;-84
2022/08/08 09:16:50;;;;;;;1.20;1.20;;;33.00;37.10;;;;;;5060810;28;20451;-83
2022/08/08 09:19:19;;;;;;;1.27;1.17;;;33.10;36.60;;;;;;5061771;28;20450;-83
2022/08/08 09:22:07;;;;;;;1.03;1.03;;;33.10;36.40;;;;;;5059930;28;20477;-83
2022/08/08 09:24:36;;;;;;;1.10;1.10;;;33.00;36.30;;;;;;5061427;28;20593;-83
2022/08/08 09:27:08;;;;;;;1.50;1.40;;;32.90;36.40;;;;;;5061031;28;20497;-83
2022/08/08 09:29:51;;;;;;;1.27;1.27;;;32.70;36.50;;;;;;5061115;28;20557;-83
2022/08/08 09:32:36;;;;;;;1.10;1.00;;;32.60;36.60;;;;;;5061461;28;20520;-84
2022/08/08 09:35:07;;;;;;;1.67;1.57;;;32.40;36.90;;;;;;5064354;28;20462;-85
2022/08/08 09:37:44;;;;;;;1.33;1.33;;;32.20;36.80;;;;;;5063620;28;20427;-84
2022/08/08 09:40:33;;;;;;;1.20;1.20;;;32.20;37.10;;;;;;5063661;28;20439;-84
2022/08/08 09:43:19;;;;;;;1.20;1.20;;;32.10;37.10;;;;;;5063614;28;20446;-84
2022/08/08 09:46:07;;;;;;;1.00;1.00;;;32.00;37.20;;;;;;5066582;28;20439;-84
2022/08/08 09:48:44;;;;;;;1.27;1.27;;;32.00;37.20;;;;;;5066788;28;20449;-84
2022/08/08 09:51:17;;;;;;;1.50;1.50;;;31.90;37.20;;;;;;5066585;28;20449;-85
2022/08/08 09:53:50;;;;;;;1.90;1.13;;;32.10;37.60;;;;;;5066396;28;20528;-84
2022/08/08 09:56:30;;;;;;;1.00;1.00;;;32.40;37.40;;;;;;5066594;28;20450;-84
2022/08/08 09:59:02;;;;;;;1.10;1.10;;;32.90;37.20;;;;;;5064763;28;20447;-84
2022/08/08 10:01:50;;;;;;;1.23;1.23;;;33.40;37.00;;;;;;5064463;28;20803;-84
2022/08/08 10:04:30;;;;;;;1.90;1.23;;;33.70;36.60;;;;;;5063712;28;20520;-84
2022/08/08 10:07:12;;;;;;;1.17;0.90;;;34.00;36.50;;;;;;5064966;28;20493;-83
2022/08/08 10:09:43;;;;;;;1.00;1.00;;;34.20;35.70;;;;;;5063780;28;20442;-84
2022/08/08 10:12:33;;;;;;;0.97;0.97;;;34.30;35.40;;;;;;5063716;28;20471;-83
2022/08/08 10:15:20;;;;;;;1.10;1.10;;;34.30;35.40;;;;;;5063656;28;20466;-83
2022/08/08 10:17:51;;;;;;;0.90;0.90;;;34.30;35.30;;;;;;5064132;28;20473;-84
2022/08/08 10:20:42;;;;;;;1.20;1.20;;;34.20;35.30;;;;;;5063290;28;20470;-84
2022/08/08 10:23:39;;;;;;;1.10;1.10;;;34.10;35.40;;;;;;5063145;28;20463;-83
2022/08/08 10:26:16;;;;;;;1.10;1.10;;;34.00;35.40;;;;;;5063747;28;20569;-83
2022/08/08 10:29:04;;;;;;;1.20;1.20;;;34.20;35.50;;;;;;5063129;28;20455;-84
2022/08/08 10:34:23;;;;;;;1.10;1.10;;;34.90;35.40;;;;;;5064198;28;20470;-83
2022/08/08 10:36:55;;;;;;;1.00;1.00;;;35.30;35.30;;;;;;5062755;28;20457;-84
2022/08/08 10:39:27;;;;;;;1.00;1.00;;;35.50;35.10;;;;;;5062174;28;20537;-84
2022/08/08 10:42:11;;;;;;;1.20;1.20;;;35.70;35.00;;;;;;5062522;28;21007;-84
2022/08/08 10:44:45;;;;;;;1.00;1.00;;;35.80;34.80;;;;;;5061923;28;20486;-81
2022/08/08 10:47:17;;;;;;;1.00;1.00;;;36.10;34.70;;;;;;5062722;28;20508;-84
2022/08/08 10:49:50;;;;;;;1.00;1.00;;;36.30;34.70;;;;;;5062199;28;20446;-82
2022/08/08 10:52:30;;;;;;;1.97;1.00;;;36.50;34.70;;;;;;5063906;28;20447;-84
2022/08/08 10:54:59;;;;;;;1.10;1.10;;;36.70;34.40;;;;;;5062074;28;20471;-83
2022/08/08 10:57:37;;;;;;;0.90;0.90;;;36.80;34.00;;;;;;5062420;28;20451;-83
2022/08/08 11:00:22;;;;;;;1.07;1.07;;;37.10;33.70;;;;;;5061647;28;20457;-84
2022/08/08 11:02:52;;;;;;;1.00;1.00;;;37.20;33.50;;;;;;5061852;28;20442;-84
2022/08/08 11:05:20;;;;;;;0.90;0.90;;;37.20;33.20;;;;;;5061972;28;20577;-84
2022/08/08 11:07:50;;;;;;;1.00;1.00;;;37.20;33.10;;;;;;5062120;28;20441;-83
2022/08/08 11:10:38;;;;;;;0.90;0.90;;;37.20;33.00;;;;;;5061319;28;20510;-82
2022/08/08 11:13:08;;;;;;;0.90;0.90;;;37.00;32.90;;;;;;5061623;28;20470;-83
2022/08/08 11:15:57;;;;;;;1.00;1.00;;;36.90;33.10;;;;;;5061771;28;20522;-83
2022/08/08 11:18:35;;;;;;;1.00;1.00;;;36.70;33.20;;;;;;5061666;28;20446;-83
2022/08/08 11:21:04;;;;;;;1.10;1.10;;;36.60;33.40;;;;;;5061515;28;20481;-83
2022/08/08 11:23:38;;;;;;;0.90;0.90;;;36.40;33.40;;;;;;5061789;28;20454;-83
2022/08/08 11:26:07;;;;;;;1.10;1.00;;;36.30;33.40;;;;;;5061525;28;20447;-84
2022/08/08 11:28:36;;;;;;;1.10;1.10;;;36.30;33.40;;;;;;5061185;28;20446;-84
2022/08/08 11:31:07;;;;;;;1.00;0.90;;;36.40;33.80;;;;;;5060848;28;20450;-84
2022/08/08 11:33:37;;;;;;;2.37;1.50;;;36.50;33.40;;;;;;5060490;28;20545;-83
2022/08/08 11:36:25;;;;;;;0.90;0.90;;;36.80;34.40;;;;;;5059140;28;20447;-84
2022/08/08 11:38:56;;;;;;;0.90;0.90;;;36.80;32.90;;;;;;5059915;28;20512;-83
2022/08/08 11:41:24;;;;;;;0.90;0.90;;;36.70;33.20;;;;;;5058753;28;20446;-82
2022/08/08 11:43:59;;;;;;;1.10;1.00;;;36.50;33.30;;;;;;5057819;28;20466;-82
2022/08/08 11:46:29;;;;;;;1.33;1.13;;;36.40;33.50;;;;;;5058233;28;20442;-83
2022/08/08 11:49:01;;;;;;;1.17;1.07;;;36.30;33.60;;;;;;5057832;28;20453;-83
2022/08/08 11:51:31;;;;;;;1.10;1.10;;;36.20;33.70;;;;;;5058229;28;20439;-83
2022/08/08 11:54:16;;;;;;;1.53;1.43;;;36.40;34.40;;;;;;5059062;28;20543;-83
2022/08/08 11:57:10;;;;;;;0.97;0.80;;;36.60;33.70;;;;;;5058378;28;20529;-83
2022/08/08 11:59:44;;;;;;;1.00;0.90;;;36.80;33.10;;;;;;5058483;28;20542;-81
2022/08/08 12:02:31;;;;;;;0.80;0.80;;;37.00;32.80;;;;;;5058589;28;20434;-83
2022/08/08 12:05:05;;;;;;;0.93;0.93;;;39.20;32.90;;;;;;5058807;28;20462;-81
2022/08/08 12:07:44;;;;;;;0.60;0.60;;;41.00;30.50;;;;;;5058154;28;20447;-80
2022/08/08 12:10:14;;;;;;;0.90;0.90;;;42.10;27.80;;;;;;5059427;28;20450;-81
2022/08/08 12:12:44;;;;;;;0.50;0.50;;;43.80;27.90;;;;;;5059737;28;20441;-81
2022/08/08 12:15:26;;;;;;;0.80;0.80;;;44.70;26.60;;;;;;5058494;28;20462;-81
2022/08/08 12:17:55;;;;;;;0.70;0.70;;;44.80;26.70;;;;;;5059104;28;20465;-81
2022/08/08 12:20:37;;;;;;;0.70;0.70;;;45.00;25.40;;;;;;5058203;28;20839;-81
2022/08/08 12:23:05;;;;;;;0.97;0.97;;;43.80;26.20;;;;;;5058216;28;20529;-80
2022/08/08 12:25:41;;;;;;;0.80;0.80;;;42.50;27.00;;;;;;5058015;28;20430;-82
2022/08/08 12:28:21;;;;;;;0.70;0.70;;;41.50;28.00;;;;;;5056763;28;20452;-82
2022/08/08 12:30:50;;;;;;;0.77;0.77;;;40.80;28.40;;;;;;5055559;28;20442;-82
2022/08/08 12:33:20;;;;;;;0.70;0.70;;;40.20;29.10;;;;;;5056007;28;20481;-82
2022/08/08 12:35:48;;;;;;;0.80;0.80;;;39.80;29.80;;;;;;5056419;28;20533;-82
2022/08/08 12:38:19;;;;;;;0.73;0.73;;;39.70;29.70;;;;;;5056898;28;20510;-81
2022/08/08 12:40:58;;;;;;;0.67;0.60;;;39.70;30.00;;;;;;5057228;28;20444;-82
2022/08/08 12:43:46;;;;;;;0.70;0.70;;;40.90;30.50;;;;;;5055741;28;20472;-80
2022/08/08 12:46:27;;;;;;;0.70;0.60;;;41.70;28.40;;;;;;5058194;28;21047;-82
2022/08/08 12:48:58;;;;;;;0.60;0.60;;;41.60;28.50;;;;;;5060176;28;20450;-83
2022/08/08 12:51:49;;;;;;;0.70;0.70;;;41.60;29.00;;;;;;5060504;28;20435;-83
2022/08/08 12:54:27;;;;;;;0.60;0.60;;;41.70;28.30;;;;;;5056314;28;20497;-82
2022/08/08 12:56:55;;;;;;;0.70;0.70;;;41.10;28.50;;;;;;5055518;28;20441;-80
2022/08/08 12:59:24;;;;;;;0.60;0.60;;;43.10;28.00;;;;;;5054580;28;20532;-80
2022/08/08 13:02:21;;;;;;;0.83;0.83;;;44.00;26.50;;;;;;5054535;28;20442;-79
2022/08/08 13:04:58;;;;;;;0.60;0.60;;;44.30;26.20;;;;;;5054486;28;20478;-80
2022/08/08 13:07:34;;;;;;;0.70;0.70;;;43.60;26.50;;;;;;5054092;28;20529;-80
2022/08/08 13:10:22;;;;;;;0.60;0.60;;;43.50;26.70;;;;;;5054232;28;20453;-81
2022/08/08 13:13:00;;;;;;;0.83;0.60;;;44.00;26.90;;;;;;5054253;28;20450;-80
2022/08/08 13:15:35;;;;;;;0.60;0.60;;;44.10;26.80;;;;;;5054935;28;20438;-80
2022/08/08 13:18:04;;;;;;;0.93;0.60;;;44.90;25.60;;;;;;5056179;28;20450;-81
2022/08/08 13:20:45;;;;;;;0.60;0.60;;;44.40;26.30;;;;;;5061540;28;20461;-79
2022/08/08 13:23:17;;;;;;;0.60;0.60;;;43.80;26.60;;;;;;5060922;28;20444;-80
2022/08/08 13:26:06;;;;;;;0.60;0.60;;;43.30;27.10;;;;;;5060421;28;20466;-81
2022/08/08 13:28:42;;;;;;;0.63;0.60;;;43.00;27.30;;;;;;5060426;28;20445;-81
2022/08/08 13:31:15;;;;;;;0.60;0.60;;;43.00;27.40;;;;;;5060576;28;20442;-80
2022/08/08 13:33:46;;;;;;;0.80;0.80;;;42.70;27.50;;;;;;5060451;28;20516;-81
2022/08/08 13:36:18;;;;;;;1.10;0.60;;;42.10;27.80;;;;;;5059417;28;20804;-80
2022/08/08 13:38:53;;;;;;;0.73;0.73;;;41.70;28.20;;;;;;5059725;28;20456;-82
2022/08/08 13:41:25;;;;;;;1.00;0.90;;;41.30;28.60;;;;;;5060248;28;20434;-83
2022/08/08 13:44:06;;;;;;;0.70;0.70;;;41.00;28.90;;;;;;5060156;28;20450;-80
2022/08/08 13:46:37;;;;;;;0.70;0.70;;;40.80;29.10;;;;;;5062440;28;20580;-82
2022/08/08 13:49:15;;;;;;;0.70;0.70;;;40.60;29.10;;;;;;5060281;28;20450;-83
2022/08/08 13:52:06;;;;;;;0.70;0.70;;;40.30;29.30;;;;;;5060105;28;20435;-83
2022/08/08 13:54:35;;;;;;;0.60;0.60;;;39.90;29.60;;;;;;5059678;28;20479;-83
2022/08/08 13:57:12;;;;;;;0.70;0.70;;;39.60;29.90;;;;;;5059790;28;20533;-83
2022/08/08 13:59:40;;;;;;;1.10;0.80;;;39.30;30.10;;;;;;5059676;28;20526;-83